createdAt,value
2018-01-12T00:01:21.702Z,98560.97
2018-01-12T00:03:50.023Z,98562.35
2018-01-12T00:06:18.356Z,98561.73
2018-01-12T00:08:48.320Z,98565.93
2018-01-12T00:11:16.625Z,98566.23
2018-01-12T00:13:44.936Z,98566.72
2018-01-12T00:16:13.256Z,98561.58
2018-01-12T00:18:41.657Z,98566.69
2018-01-12T00:21:10.948Z,98562.36
2018-01-12T00:23:39.280Z,98563.52
2018-01-12T00:26:08.358Z,98566.92
2018-01-12T00:28:36.706Z,98565.02
2018-01-12T00:31:05.041Z,98569.53
2018-01-12T00:33:36.058Z,98566.84
2018-01-12T00:36:04.384Z,98566.73
2018-01-12T00:38:32.702Z,98567.72
2018-01-12T00:41:01.018Z,98566.88
2018-01-12T00:43:29.348Z,98570.03
2018-01-12T00:45:57.711Z,98573.11
2018-01-12T00:48:26.136Z,98573.22
2018-01-12T00:50:54.467Z,98576.31
2018-01-12T00:53:22.794Z,98571.66
2018-01-12T00:55:51.892Z,98569.84
2018-01-12T00:58:21.016Z,98574.63
2018-01-12T01:00:49.372Z,98578.28
2018-01-12T01:03:17.761Z,98579.97
2018-01-12T01:05:46.898Z,98572.92
2018-01-12T01:08:15.260Z,98572.80
2018-01-12T01:10:43.575Z,98585.61
2018-01-12T01:13:11.909Z,98583.54
2018-01-12T01:15:40.240Z,98585.61
2018-01-12T01:18:08.566Z,98590.95
2018-01-12T01:20:36.892Z,98593.32
2018-01-12T01:23:05.224Z,98594.16
2018-01-12T01:25:33.540Z,98598.16
2018-01-12T01:28:01.877Z,98603.80
2018-01-12T01:30:30.217Z,98606.84
2018-01-12T01:32:58.545Z,98607.45
2018-01-12T01:35:26.857Z,98602.48
2018-01-12T01:37:55.183Z,98602.91
2018-01-12T01:40:23.544Z,98603.98
2018-01-12T01:42:51.849Z,98607.28
2018-01-12T01:45:20.204Z,98606.13
2018-01-12T01:47:48.532Z,98610.27
2018-01-12T01:50:16.862Z,98610.86
2018-01-12T01:52:45.179Z,98609.65
2018-01-12T01:55:14.267Z,98607.94
2018-01-12T01:57:42.613Z,98610.02
2018-01-12T02:00:10.958Z,98615.22
2018-01-12T02:02:39.282Z,98620.02
2018-01-12T02:05:07.613Z,98616.19
2018-01-12T02:07:38.531Z,98627.61
2018-01-12T02:10:06.909Z,98616.45
2018-01-12T02:12:35.217Z,98620.21
2018-01-12T02:15:04.324Z,98619.48
2018-01-12T02:17:32.660Z,98622.14
2018-01-12T02:20:01.032Z,98624.16
2018-01-12T02:22:29.369Z,98625.05
2018-01-12T02:24:57.705Z,98629.14
2018-01-12T02:27:26.809Z,98625.38
2018-01-12T02:29:55.190Z,98633.45
2018-01-12T02:32:23.507Z,98634.66
2018-01-12T02:34:52.607Z,98636.59
2018-01-12T02:37:20.941Z,98633.80
2018-01-12T02:39:49.276Z,98638.84
2018-01-12T02:42:17.625Z,98637.20
2018-01-12T02:44:45.950Z,98644.42
2018-01-12T02:47:14.293Z,98648.25
2018-01-12T02:49:42.619Z,98646.96
2018-01-12T02:52:10.966Z,98641.98
2018-01-12T02:54:39.300Z,98635.32
2018-01-12T02:57:07.623Z,98652.14
2018-01-12T02:59:35.980Z,98645.73
2018-01-12T03:02:04.321Z,98648.50
2018-01-12T03:04:33.420Z,98650.38
2018-01-12T03:07:01.738Z,98650.52
2018-01-12T03:09:30.067Z,98646.58
2018-01-12T03:11:59.174Z,98648.91
2018-01-12T03:14:27.526Z,98651.09
2018-01-12T03:16:55.842Z,98650.77
2018-01-12T03:19:24.181Z,98651.67
2018-01-12T03:21:53.283Z,98651.76
2018-01-12T03:24:22.655Z,98656.83
2018-01-12T03:26:51.092Z,98651.17
2018-01-12T03:29:19.445Z,98648.64
2018-01-12T03:31:47.762Z,98654.72
2018-01-12T03:34:16.128Z,98650.18
2018-01-12T03:36:44.439Z,98649.55
2018-01-12T03:39:12.785Z,98647.35
2018-01-12T03:41:41.236Z,98659.52
2018-01-12T03:44:09.560Z,98655.50
2018-01-12T03:46:37.904Z,98654.00
2018-01-12T03:49:06.996Z,98655.83
2018-01-12T03:51:35.319Z,98656.48
2018-01-12T03:54:03.661Z,98656.47
2018-01-12T03:56:32.057Z,98665.27
2018-01-12T03:59:00.408Z,98659.64
2018-01-12T04:01:29.508Z,98659.86
2018-01-12T04:03:57.827Z,98663.73
2018-01-12T04:06:26.183Z,98667.75
2018-01-12T04:08:54.518Z,98669.63
2018-01-12T04:11:22.843Z,98667.07
2018-01-12T04:13:52.893Z,98664.95
2018-01-12T04:16:22.137Z,98666.44
2018-01-12T04:18:50.472Z,98673.96
2018-01-12T04:21:18.816Z,98673.88
2018-01-12T04:23:47.152Z,98674.89
2018-01-12T04:26:16.546Z,98675.66
2018-01-12T04:28:46.227Z,98670.13
2018-01-12T04:31:14.550Z,98678.84
2018-01-12T04:33:43.646Z,98677.99
2018-01-12T04:36:11.985Z,98674.35
2018-01-12T04:38:40.314Z,98675.62
2018-01-12T04:41:08.767Z,98682.19
2018-01-12T04:43:37.121Z,98685.59
2018-01-12T04:46:05.458Z,98689.43
2018-01-12T04:48:33.788Z,98691.61
2018-01-12T04:51:02.136Z,98689.86
2018-01-12T04:53:30.511Z,98689.54
2018-01-12T04:55:58.822Z,98687.36
2018-01-12T04:58:27.153Z,98684.80
2018-01-12T05:00:55.484Z,98680.02
2018-01-12T05:03:23.816Z,98689.95
2018-01-12T05:05:52.149Z,98684.19
2018-01-12T05:08:21.273Z,98687.28
2018-01-12T05:10:49.607Z,98689.83
2018-01-12T05:13:17.950Z,98692.06
2018-01-12T05:15:46.313Z,98695.77
2018-01-12T05:18:14.701Z,98691.70
2018-01-12T05:20:43.041Z,98698.14
2018-01-12T05:23:12.165Z,98701.23
2018-01-12T05:25:41.611Z,98703.75
2018-01-12T05:28:10.403Z,98703.23
2018-01-12T05:30:38.743Z,98701.49
2018-01-12T05:33:07.074Z,98698.27
2018-01-12T05:35:37.441Z,98702.81
2018-01-12T05:38:05.777Z,98703.19
2018-01-12T05:40:34.132Z,98709.61
2018-01-12T05:43:02.446Z,98708.66
2018-01-12T05:45:30.812Z,98712.46
2018-01-12T05:47:59.949Z,98713.67
2018-01-12T05:50:28.286Z,98709.28
2018-01-12T05:52:56.662Z,98716.30
2018-01-12T05:55:24.980Z,98714.52
2018-01-12T05:57:53.307Z,98714.58
2018-01-12T06:00:21.631Z,98717.98
2018-01-12T06:03:07.523Z,98719.19
2018-01-12T06:05:53.530Z,98725.63
2018-01-12T06:08:21.843Z,98716.58
2018-01-12T06:10:50.253Z,98719.91
2018-01-12T06:13:18.606Z,98722.25
2018-01-12T06:15:48.855Z,98720.59
2018-01-12T06:18:17.179Z,98722.68
2018-01-12T06:20:45.503Z,98723.93
2018-01-12T06:23:13.823Z,98729.47
2018-01-12T06:25:42.151Z,98736.67
2018-01-12T06:28:11.239Z,98738.45
2018-01-12T06:30:40.356Z,98738.24
2018-01-12T06:33:11.459Z,98732.83
2018-01-12T06:35:39.801Z,98734.46
2018-01-12T06:38:08.121Z,98739.01
2018-01-12T06:40:36.465Z,98742.34
2018-01-12T06:43:04.784Z,98745.27
2018-01-12T06:45:33.866Z,98741.24
2018-01-12T06:48:02.192Z,98751.51
2018-01-12T06:50:30.599Z,98746.42
2018-01-12T06:52:58.982Z,98746.17
2018-01-12T06:55:27.329Z,98750.09
2018-01-12T06:57:55.661Z,98752.44
2018-01-12T07:00:23.991Z,98756.92
2018-01-12T07:02:52.334Z,98753.09
2018-01-12T07:05:21.451Z,98762.75
2018-01-12T07:07:49.784Z,98763.34
2018-01-12T07:10:18.135Z,98760.32
2018-01-12T07:12:46.474Z,98760.30
2018-01-12T07:15:14.810Z,98757.09
2018-01-12T07:17:43.164Z,98756.23
2018-01-12T07:20:29.070Z,98764.58
2018-01-12T07:23:15.028Z,98763.80
2018-01-12T07:25:43.374Z,98767.00
2018-01-12T07:28:12.476Z,98773.62
2018-01-12T07:30:41.973Z,98776.09
2018-01-12T07:33:11.080Z,98784.32
2018-01-12T07:35:39.424Z,98783.16
2018-01-12T07:38:07.752Z,98783.86
2018-01-12T07:40:36.109Z,98788.47
2018-01-12T07:43:05.206Z,98782.84
2018-01-12T07:45:33.666Z,98791.13
2018-01-12T07:48:02.004Z,98790.72
2018-01-12T07:50:30.335Z,98788.85
2018-01-12T07:53:05.255Z,98793.47
2018-01-12T07:55:33.656Z,98791.75
2018-01-12T07:58:02.079Z,98792.62
2018-01-12T08:00:35.968Z,98795.02
2018-01-12T08:03:04.308Z,98804.06
2018-01-12T08:05:32.662Z,98805.52
2018-01-12T08:08:01.005Z,98812.65
2018-01-12T08:10:29.355Z,98813.42
2018-01-12T08:12:57.679Z,98806.81
2018-01-12T08:15:26.034Z,98811.16
2018-01-12T08:17:54.359Z,98797.73
2018-01-12T08:20:22.751Z,98815.20
2018-01-12T08:22:51.845Z,98821.91
2018-01-12T08:25:20.365Z,98828.53
2018-01-12T08:27:48.681Z,98826.22
2018-01-12T08:30:17.002Z,98828.16
2018-01-12T08:32:45.336Z,98827.37
2018-01-12T08:35:14.413Z,98830.98
2018-01-12T08:37:42.737Z,98833.77
2018-01-12T08:40:11.071Z,98839.27
2018-01-12T08:42:39.425Z,98841.42
2018-01-12T08:45:07.763Z,98838.67
2018-01-12T08:47:36.895Z,98847.30
2018-01-12T08:50:05.218Z,98849.84
2018-01-12T08:52:33.559Z,98842.80
2018-01-12T08:55:01.916Z,98842.53
2018-01-12T08:57:30.233Z,98849.84
2018-01-12T08:59:58.583Z,98854.78
2018-01-12T09:02:26.910Z,98858.77
2018-01-12T09:04:55.292Z,98860.30
2018-01-12T09:07:23.634Z,98866.39
2018-01-12T09:09:52.302Z,98869.20
2018-01-12T09:12:20.649Z,98868.84
2018-01-12T09:14:53.351Z,98875.12
2018-01-12T09:17:33.226Z,98877.52
2018-01-12T09:20:16.232Z,98876.77
2018-01-12T09:22:47.710Z,98877.09
2018-01-12T09:25:25.799Z,98885.28
2018-01-12T09:27:55.886Z,98889.81
2018-01-12T09:30:24.205Z,98889.72
2018-01-12T09:32:52.544Z,98898.65
2018-01-12T09:35:20.882Z,98900.09
2018-01-12T09:38:06.890Z,98901.55
2018-01-12T09:40:49.012Z,98904.56
2018-01-12T09:43:17.340Z,98906.89
2018-01-12T09:45:45.682Z,98911.09
2018-01-12T09:48:36.719Z,98918.03
2018-01-12T09:51:05.068Z,98916.67
2018-01-12T09:53:33.411Z,98912.87
2018-01-12T09:56:01.756Z,98920.02
2018-01-12T09:58:30.088Z,98916.54
2018-01-12T10:01:03.316Z,98915.47
2018-01-12T10:03:31.629Z,98915.91
2018-01-12T10:06:00.765Z,98919.50
2018-01-12T10:08:29.085Z,98918.05
2018-01-12T10:10:57.423Z,98917.09
2018-01-12T10:13:26.542Z,98917.41
2018-01-12T10:15:54.873Z,98915.23
2018-01-12T10:18:35.151Z,98918.91
2018-01-12T10:24:12.813Z,98918.94
2018-01-12T10:26:42.885Z,98917.25
2018-01-12T10:29:11.265Z,98919.33
2018-01-12T10:31:51.336Z,98916.98
2018-01-12T10:34:45.307Z,98920.73
2018-01-12T10:37:13.650Z,98920.80
2018-01-12T10:39:59.541Z,98913.28
2018-01-12T10:42:27.874Z,98912.73
2018-01-12T10:44:56.224Z,98910.39
2018-01-12T10:47:26.205Z,98911.31
2018-01-12T10:53:01.946Z,98911.73
2018-01-12T10:55:30.277Z,98911.80
2018-01-12T10:57:58.602Z,98914.63
2018-01-12T11:00:32.642Z,98914.06
2018-01-12T11:03:01.730Z,98912.52
2018-01-12T11:05:30.053Z,98914.94
2018-01-12T11:07:58.379Z,98910.13
2018-01-12T11:10:27.475Z,98916.09
2018-01-12T11:12:55.856Z,98915.73
2018-01-12T11:15:24.177Z,98919.81
2018-01-12T11:17:52.520Z,98916.59
2018-01-12T11:20:21.610Z,98913.55
2018-01-12T11:22:49.946Z,98921.66
2018-01-12T11:25:18.261Z,98931.41
2018-01-12T11:27:47.396Z,98930.00
2018-01-12T11:30:15.734Z,98919.65
2018-01-12T11:32:44.960Z,98920.64
2018-01-12T11:35:13.365Z,98914.45
2018-01-12T11:37:41.706Z,98910.61
2018-01-12T11:40:10.864Z,98914.56
2018-01-12T11:42:39.202Z,98913.94
2018-01-12T11:45:07.544Z,98912.19
2018-01-12T11:47:35.900Z,98910.64
2018-01-12T11:50:04.246Z,98905.24
2018-01-12T11:52:32.561Z,98906.30
2018-01-12T11:55:00.883Z,98903.58
2018-01-12T11:57:29.220Z,98905.89
2018-01-12T11:59:57.569Z,98899.59
2018-01-12T12:02:25.904Z,98896.59
2018-01-12T12:04:54.240Z,98895.85
2018-01-12T12:07:22.566Z,98893.12
2018-01-12T12:09:50.904Z,98890.95
2018-01-12T12:12:19.249Z,98899.14
2018-01-12T12:14:47.588Z,98896.36
2018-01-12T12:17:15.933Z,98893.41
2018-01-12T12:19:44.309Z,98894.91
2018-01-12T12:22:12.637Z,98888.16
2018-01-12T12:24:40.966Z,98885.07
2018-01-12T12:27:09.313Z,98882.65
2018-01-12T12:29:37.656Z,98882.14
2018-01-12T12:32:05.995Z,98876.59
2018-01-12T12:34:34.331Z,98875.83
2018-01-12T12:37:02.674Z,98874.21
2018-01-12T12:39:31.022Z,98867.81
2018-01-12T12:41:59.375Z,98872.80
2018-01-12T12:44:27.720Z,98876.78
2018-01-12T12:46:56.053Z,98871.23
2018-01-12T12:49:25.133Z,98871.86
2018-01-12T12:51:53.591Z,98873.31
2018-01-12T12:54:21.940Z,98873.69
2018-01-12T12:56:50.304Z,98871.08
2018-01-12T12:59:18.649Z,98872.45
2018-01-12T13:01:46.970Z,98876.73
2018-01-12T13:04:15.327Z,98876.88
2018-01-12T13:06:43.646Z,98880.37
2018-01-12T13:09:12.714Z,98876.11
2018-01-12T13:11:41.042Z,98877.53
2018-01-12T13:14:09.380Z,98873.70
2018-01-12T13:16:38.484Z,98880.47
2018-01-12T13:19:07.351Z,98871.09
2018-01-12T13:21:35.683Z,98878.01
2018-01-12T13:24:04.057Z,98872.84
2018-01-12T13:26:32.400Z,98881.09
2018-01-12T13:29:01.897Z,98881.30
2018-01-12T13:31:31.008Z,98884.87
2018-01-12T13:33:59.370Z,98879.28
2018-01-12T13:36:27.716Z,98884.29
2018-01-12T13:38:56.389Z,98888.33
2018-01-12T13:41:24.720Z,98887.00
2018-01-12T13:43:53.051Z,98891.38
2018-01-12T13:46:21.359Z,98895.30
2018-01-12T13:48:50.472Z,98894.70
2018-01-12T13:51:18.806Z,98896.50
2018-01-12T13:53:47.127Z,98892.31
2018-01-12T13:56:16.224Z,98890.25
2018-01-12T13:58:45.313Z,98897.30
2018-01-12T14:01:13.638Z,98897.01
2018-01-12T14:03:41.982Z,98896.69
2018-01-12T14:06:10.302Z,98894.20
2018-01-12T14:08:39.089Z,98900.77
2018-01-12T14:11:07.450Z,98899.69
2018-01-12T14:13:35.783Z,98899.06
2018-01-12T14:16:04.116Z,98901.27
2018-01-12T14:18:32.455Z,98901.96
2018-01-12T14:21:01.567Z,98905.48
2018-01-12T14:23:31.783Z,98909.38
2018-01-12T14:26:00.118Z,98908.47
2018-01-12T14:28:28.458Z,98912.30
2018-01-12T14:30:56.782Z,98918.38
2018-01-12T14:33:25.111Z,98916.93
2018-01-12T14:35:53.460Z,98923.25
2018-01-12T14:38:21.800Z,98926.66
2018-01-12T14:40:50.162Z,98921.61
2018-01-12T14:43:18.504Z,98924.92
2018-01-12T14:45:46.870Z,98925.45
2018-01-12T14:48:15.205Z,98924.12
2018-01-12T14:50:43.527Z,98923.26
2018-01-12T14:53:11.882Z,98924.92
2018-01-12T14:55:40.973Z,98927.78
2018-01-12T14:58:09.300Z,98922.73
2018-01-12T15:00:37.644Z,98918.05
2018-01-12T15:03:06.742Z,98923.03
2018-01-12T15:05:35.079Z,98922.42
2018-01-12T15:08:03.411Z,98916.23
2018-01-12T15:10:32.117Z,98920.48
2018-01-12T15:13:00.463Z,98923.41
2018-01-12T15:15:29.592Z,98928.33
2018-01-12T15:17:57.953Z,98927.23
2018-01-12T15:20:26.291Z,98927.30
2018-01-12T15:22:54.625Z,98920.58
2018-01-12T15:25:23.736Z,98930.15
2018-01-12T15:27:52.072Z,98943.26
2018-01-12T15:30:20.412Z,98939.07
2018-01-12T15:32:48.747Z,98938.22
2018-01-12T15:35:17.086Z,98946.73
2018-01-12T15:37:46.200Z,98943.91
2018-01-12T15:40:14.530Z,98948.16
2018-01-12T15:42:42.875Z,98950.03
2018-01-12T15:45:11.225Z,98943.23
2018-01-12T15:47:40.303Z,98955.25
2018-01-12T15:50:08.663Z,98946.73
2018-01-12T15:52:36.994Z,98952.36
2018-01-12T15:55:05.327Z,98959.08
2018-01-12T15:57:33.663Z,98958.78
2018-01-12T16:00:02.014Z,98960.63
2018-01-12T16:02:30.342Z,98958.07
2018-01-12T16:04:58.975Z,98958.85
2018-01-12T16:07:27.309Z,98959.80
2018-01-12T16:09:55.654Z,98967.45
2018-01-12T16:12:24.005Z,98963.18
2018-01-12T16:14:52.346Z,98966.08
2018-01-12T16:17:20.679Z,98970.50
2018-01-12T16:19:49.041Z,98966.30
2018-01-12T16:22:17.372Z,98963.39
2018-01-12T16:24:45.714Z,98966.03
2018-01-12T16:27:14.053Z,98960.80
2018-01-12T16:29:42.401Z,98969.16
2018-01-12T16:32:10.747Z,98962.75
2018-01-12T16:34:39.075Z,98957.56
2018-01-12T16:37:07.400Z,98965.59
2018-01-12T16:39:35.758Z,98954.66
2018-01-12T16:42:04.077Z,98958.24
2018-01-12T16:44:32.385Z,98962.42
2018-01-12T16:47:00.719Z,98963.61
2018-01-12T16:49:29.057Z,98966.94
2018-01-12T16:51:58.169Z,98964.94
2018-01-12T16:54:26.520Z,98964.31
2018-01-12T16:56:54.864Z,98967.19
2018-01-12T16:59:23.192Z,98967.19
2018-01-12T17:01:52.286Z,98966.27
2018-01-12T17:04:20.632Z,98965.95
2018-01-12T17:06:48.967Z,98966.02
2018-01-12T17:09:17.292Z,98963.45
2018-01-12T17:11:45.641Z,98955.88
2018-01-12T17:14:13.977Z,98955.25
2018-01-12T17:16:42.303Z,98958.29
2018-01-12T17:19:10.611Z,98960.85
2018-01-12T17:21:38.939Z,98964.69
2018-01-12T17:24:07.255Z,98959.72
2018-01-12T17:26:35.608Z,98962.97
2018-01-12T17:29:03.948Z,98968.47
2018-01-12T17:31:32.279Z,98961.23
2018-01-12T17:34:01.480Z,98966.81
2018-01-12T17:36:29.829Z,98968.89
2018-01-12T17:38:58.177Z,98974.30
2018-01-12T17:41:26.499Z,98979.45
2018-01-12T17:43:54.830Z,98982.18
2018-01-12T17:46:23.213Z,98983.59
2018-01-12T17:48:51.549Z,98978.22
2018-01-12T17:51:19.919Z,98976.66
2018-01-12T17:53:48.274Z,98976.73
2018-01-12T17:56:18.058Z,98975.66
2018-01-12T17:58:47.411Z,98978.56
2018-01-12T18:01:15.778Z,98979.53
2018-01-12T18:03:44.190Z,98978.61
2018-01-12T18:06:12.564Z,98978.71
2018-01-12T18:08:41.715Z,98978.83
2018-01-12T18:11:10.032Z,98982.47
2018-01-12T18:13:41.142Z,98989.36
2018-01-12T18:16:10.727Z,98984.80
2018-01-12T18:18:39.677Z,98985.11
2018-01-12T18:21:08.021Z,98984.52
2018-01-12T18:23:36.603Z,98987.28
2018-01-12T18:26:05.199Z,98987.36
2018-01-12T18:28:33.725Z,98986.43
2018-01-12T18:31:03.560Z,98991.56
2018-01-12T18:33:32.407Z,98987.01
2018-01-12T18:36:01.552Z,98991.13
2018-01-12T18:38:30.619Z,98990.70
2018-01-12T18:41:00.036Z,98985.59
2018-01-12T18:43:29.390Z,98988.28
2018-01-12T18:45:58.687Z,98995.45
2018-01-12T18:48:27.949Z,98988.21
2018-01-12T18:50:57.623Z,98991.26
2018-01-12T18:53:27.388Z,98994.09
2018-01-12T18:55:57.146Z,98992.28
2018-01-12T18:58:26.841Z,98992.67
2018-01-12T19:00:56.607Z,98989.42
2018-01-12T19:03:26.277Z,98996.11
2018-01-12T19:05:55.992Z,98993.96
2018-01-12T19:08:25.781Z,98993.56
2018-01-12T19:10:55.564Z,98993.98
2018-01-12T19:13:25.367Z,98994.05
2018-01-12T19:15:55.117Z,98998.66
2018-01-12T19:18:24.984Z,98996.28
2018-01-12T19:20:55.687Z,99010.75
2018-01-12T19:23:25.556Z,99007.92
2018-01-12T19:25:55.441Z,99003.54
2018-01-12T19:28:27.110Z,99002.39
2018-01-12T19:30:56.966Z,99003.95
2018-01-12T19:33:26.736Z,99001.53
2018-01-12T19:35:56.632Z,99001.90
2018-01-12T19:38:26.569Z,99005.29
2018-01-12T19:40:56.372Z,99005.52
2018-01-12T19:43:26.171Z,99005.95
2018-01-12T19:45:56.048Z,99000.59
2018-01-12T19:48:25.980Z,99004.85
2018-01-12T19:50:56.771Z,99003.68
2018-01-12T19:53:26.665Z,99004.59
2018-01-12T19:55:57.036Z,99007.12
2018-01-12T19:58:26.829Z,99008.50
2018-01-12T20:00:57.492Z,99013.86
2018-01-12T20:03:27.308Z,99013.52
2018-01-12T20:05:57.334Z,99008.94
2018-01-12T20:08:28.094Z,99012.95
2018-01-12T20:10:58.381Z,99009.20
2018-01-12T20:13:28.916Z,99014.30
2018-01-12T20:15:58.914Z,99012.20
2018-01-12T20:18:28.868Z,99016.86
2018-01-12T20:20:59.342Z,99016.71
2018-01-12T20:23:29.183Z,99018.41
2018-01-12T20:25:59.192Z,99000.20
2018-01-12T20:28:29.973Z,99018.25
2018-01-12T20:31:01.683Z,99014.78
2018-01-12T20:33:32.401Z,99013.97
2018-01-12T20:36:02.331Z,99021.67
2018-01-12T20:38:32.213Z,99020.14
2018-01-12T20:41:02.474Z,99023.45
2018-01-12T20:43:32.359Z,99025.84
2018-01-12T20:46:02.254Z,99024.03
2018-01-12T20:48:32.086Z,99024.15
2018-01-12T20:51:02.018Z,99023.95
2018-01-12T20:53:32.540Z,99023.91
2018-01-12T20:56:02.456Z,99027.41
2018-01-12T20:58:32.317Z,99023.93
2018-01-12T21:01:02.195Z,99019.64
2018-01-12T21:03:32.969Z,99026.76
2018-01-12T21:06:02.885Z,99021.87
2018-01-12T21:08:32.931Z,99021.78
2018-01-12T21:11:03.710Z,99019.56
2018-01-12T21:13:33.595Z,99016.24
2018-01-12T21:16:03.602Z,99023.64
2018-01-12T21:18:34.249Z,99018.60
2018-01-12T21:21:04.172Z,99025.05
2018-01-12T21:23:34.063Z,99021.48
2018-01-12T21:26:03.900Z,99024.72
2018-01-12T21:28:33.716Z,99022.62
2018-01-12T21:31:03.591Z,99026.50
2018-01-12T21:33:33.382Z,99022.86
2018-01-12T21:36:03.272Z,99022.95
2018-01-12T21:38:33.129Z,99025.91
2018-01-12T21:41:05.119Z,99018.77
2018-01-12T21:43:34.988Z,99021.93
2018-01-12T21:46:05.878Z,99024.92
2018-01-12T21:48:40.910Z,99026.41
2018-01-12T21:51:10.774Z,99023.69
2018-01-12T21:53:40.627Z,99023.90
2018-01-12T21:56:11.103Z,99035.38
2018-01-12T21:58:41.681Z,99029.50
2018-01-12T22:01:11.644Z,99032.77
2018-01-12T22:03:41.517Z,99026.23
2018-01-12T22:06:11.365Z,99027.72
2018-01-12T22:08:43.852Z,99025.09
2018-01-12T22:11:13.808Z,99025.35
2018-01-12T22:13:43.727Z,99018.27
2018-01-12T22:16:13.537Z,99021.44
2018-01-12T22:18:43.541Z,99018.97
2018-01-12T22:21:13.443Z,99020.48
2018-01-12T22:23:43.321Z,99022.52
2018-01-12T22:26:13.115Z,99018.08
2018-01-12T22:28:42.915Z,99022.00
2018-01-12T22:31:13.102Z,99024.62
2018-01-12T22:33:42.851Z,99032.29
2018-01-12T22:36:12.744Z,99028.94
2018-01-12T22:43:50.637Z,99030.46
2018-01-12T22:46:20.257Z,99035.30
2018-01-12T22:48:49.986Z,99031.83
2018-01-12T22:51:18.951Z,99038.95
2018-01-12T22:53:48.589Z,99036.59
2018-01-12T22:56:17.102Z,99030.89
2018-01-12T22:58:46.800Z,99025.53
2018-01-12T23:01:15.204Z,99021.60
2018-01-12T23:03:44.714Z,99026.27
2018-01-12T23:06:13.066Z,99023.03
2018-01-12T23:08:41.436Z,99032.64
2018-01-12T23:11:10.425Z,99027.79
2018-01-12T23:13:38.759Z,99024.72
2018-01-12T23:16:07.121Z,99025.08
2018-01-12T23:18:35.473Z,99030.23
2018-01-12T23:21:03.836Z,99028.23
2018-01-12T23:23:32.174Z,99019.22
2018-01-12T23:26:00.522Z,99025.17
2018-01-12T23:28:28.857Z,99023.89
2018-01-12T23:30:57.209Z,99025.22
2018-01-12T23:33:25.539Z,99021.59
2018-01-12T23:35:53.866Z,99017.24
2018-01-12T23:38:22.198Z,99025.67
2018-01-12T23:40:51.318Z,99023.99
2018-01-12T23:43:19.662Z,99017.86
2018-01-12T23:45:47.991Z,99018.03
2018-01-12T23:48:16.338Z,99021.23
2018-01-12T23:50:45.434Z,99015.46
2018-01-12T23:53:13.759Z,99019.88
2018-01-12T23:55:42.939Z,99015.72
2018-01-12T23:58:11.260Z,99016.34
